Аэропорт: Омск-Центральный. Омск

ICAO: UNOO

METAR:
2020-06-01 03:00:00
UNOO 010300Z 10004MPS 9999 -SHRA BKN033CB 15/10 Q1006 R07/CLRD60 NOSIG RMK QFE746
METAR:
2020-06-01 01:50:00
TAF UNOO 010150Z 0103/0203 13006G14MPS 9999 BKN030CB TEMPO 0103/0115 2000 TSRA SCT010 BKN025CB BECMG 0108/0110 27006G13MPS BECMG 0110/0112 31004G10MPS